sensor_id;sensor_type;location;lat;lon;timestamp;P1;durP1;ratioP1;P2;durP2;ratioP2
53269;SDS011;39159;45.634;9.420;2023-02-28T00:01:16;16.10;;;9.82;;
53269;SDS011;39159;45.634;9.420;2023-02-28T00:03:41;24.63;;;9.57;;
53269;SDS011;39159;45.634;9.420;2023-02-28T00:06:07;15.38;;;9.38;;
53269;SDS011;39159;45.634;9.420;2023-02-28T00:08:34;14.88;;;9.05;;
53269;SDS011;39159;45.634;9.420;2023-02-28T00:11:01;15.93;;;8.30;;
53269;SDS011;39159;45.634;9.420;2023-02-28T00:13:27;17.05;;;9.07;;
53269;SDS011;39159;45.634;9.420;2023-02-28T00:16:03;20.15;;;8.90;;
53269;SDS011;39159;45.634;9.420;2023-02-28T00:18:30;17.38;;;9.30;;
53269;SDS011;39159;45.634;9.420;2023-02-28T00:20:56;19.10;;;9.05;;
53269;SDS011;39159;45.634;9.420;2023-02-28T00:23:22;17.70;;;9.38;;
53269;SDS011;39159;45.634;9.420;2023-02-28T00:25:48;15.40;;;8.15;;
53269;SDS011;39159;45.634;9.420;2023-02-28T00:28:14;12.48;;;8.18;;
53269;SDS011;39159;45.634;9.420;2023-02-28T00:30:39;13.18;;;7.60;;
53269;SDS011;39159;45.634;9.420;2023-02-28T00:33:05;16.20;;;8.38;;
53269;SDS011;39159;45.634;9.420;2023-02-28T00:35:30;14.32;;;7.85;;
53269;SDS011;39159;45.634;9.420;2023-02-28T00:37:55;13.40;;;8.10;;
53269;SDS011;39159;45.634;9.420;2023-02-28T00:40:21;15.30;;;7.60;;
53269;SDS011;39159;45.634;9.420;2023-02-28T00:42:46;13.77;;;7.40;;
53269;SDS011;39159;45.634;9.420;2023-02-28T00:45:12;12.73;;;7.80;;
53269;SDS011;39159;45.634;9.420;2023-02-28T00:47:37;14.82;;;7.78;;
53269;SDS011;39159;45.634;9.420;2023-02-28T00:50:03;16.70;;;8.00;;
53269;SDS011;39159;45.634;9.420;2023-02-28T00:52:29;12.27;;;8.30;;
53269;SDS011;39159;45.634;9.420;2023-02-28T00:54:54;14.05;;;7.95;;
53269;SDS011;39159;45.634;9.420;2023-02-28T00:57:20;16.38;;;8.02;;
53269;SDS011;39159;45.634;9.420;2023-02-28T00:59:45;12.07;;;7.53;;
53269;SDS011;39159;45.634;9.420;2023-02-28T01:02:11;13.90;;;7.28;;
53269;SDS011;39159;45.634;9.420;2023-02-28T01:04:36;14.10;;;7.55;;
53269;SDS011;39159;45.634;9.420;2023-02-28T01:07:02;15.25;;;7.68;;
53269;SDS011;39159;45.634;9.420;2023-02-28T01:09:27;14.93;;;8.20;;
53269;SDS011;39159;45.634;9.420;2023-02-28T01:11:52;13.02;;;7.18;;
53269;SDS011;39159;45.634;9.420;2023-02-28T01:14:18;10.70;;;6.93;;
53269;SDS011;39159;45.634;9.420;2023-02-28T01:16:43;16.02;;;7.75;;
53269;SDS011;39159;45.634;9.420;2023-02-28T01:19:09;12.57;;;7.13;;
53269;SDS011;39159;45.634;9.420;2023-02-28T01:21:35;15.23;;;8.07;;
53269;SDS011;39159;45.634;9.420;2023-02-28T01:24:00;13.93;;;7.30;;
53269;SDS011;39159;45.634;9.420;2023-02-28T01:26:26;16.23;;;7.85;;
53269;SDS011;39159;45.634;9.420;2023-02-28T01:28:52;18.42;;;8.30;;
53269;SDS011;39159;45.634;9.420;2023-02-28T01:31:18;11.60;;;7.25;;
53269;SDS011;39159;45.634;9.420;2023-02-28T01:33:44;15.27;;;8.32;;
53269;SDS011;39159;45.634;9.420;2023-02-28T01:36:11;11.32;;;7.45;;
53269;SDS011;39159;45.634;9.420;2023-02-28T01:38:39;14.20;;;8.35;;
53269;SDS011;39159;45.634;9.420;2023-02-28T01:41:05;13.38;;;7.57;;
53269;SDS011;39159;45.634;9.420;2023-02-28T01:43:32;16.08;;;8.05;;
53269;SDS011;39159;45.634;9.420;2023-02-28T01:46:18;16.42;;;8.55;;
53269;SDS011;39159;45.634;9.420;2023-02-28T01:51:44;14.48;;;7.65;;
53269;SDS011;39159;45.634;9.420;2023-02-28T01:54:21;14.07;;;7.68;;
53269;SDS011;39159;45.634;9.420;2023-02-28T01:56:51;13.32;;;7.85;;
53269;SDS011;39159;45.634;9.420;2023-02-28T01:59:27;12.25;;;7.80;;
53269;SDS011;39159;45.634;9.420;2023-02-28T02:01:58;12.32;;;8.50;;
53269;SDS011;39159;45.634;9.420;2023-02-28T02:04:25;14.38;;;8.40;;
53269;SDS011;39159;45.634;9.420;2023-02-28T02:06:57;15.75;;;8.20;;
53269;SDS011;39159;45.634;9.420;2023-02-28T02:09:23;16.45;;;9.30;;
53269;SDS011;39159;45.634;9.420;2023-02-28T02:11:49;14.07;;;7.85;;
53269;SDS011;39159;45.634;9.420;2023-02-28T02:25:23;19.17;;;8.95;;
53269;SDS011;39159;45.634;9.420;2023-02-28T02:36:48;17.00;;;8.80;;
53269;SDS011;39159;45.634;9.420;2023-02-28T02:42:20;18.80;;;9.57;;
53269;SDS011;39159;45.634;9.420;2023-02-28T02:44:59;17.95;;;9.05;;
53269;SDS011;39159;45.634;9.420;2023-02-28T02:47:30;20.83;;;9.55;;
53269;SDS011;39159;45.634;9.420;2023-02-28T02:49:57;17.33;;;9.20;;
53269;SDS011;39159;45.634;9.420;2023-02-28T02:52:30;21.08;;;10.38;;
53269;SDS011;39159;45.634;9.420;2023-02-28T02:55:01;16.00;;;9.85;;
53269;SDS011;39159;45.634;9.420;2023-02-28T02:57:30;19.88;;;10.02;;
53269;SDS011;39159;45.634;9.420;2023-02-28T03:00:02;15.85;;;8.98;;
53269;SDS011;39159;45.634;9.420;2023-02-28T03:02:30;17.75;;;9.75;;
53269;SDS011;39159;45.634;9.420;2023-02-28T03:04:59;17.52;;;10.15;;
53269;SDS011;39159;45.634;9.420;2023-02-28T03:07:29;16.90;;;9.40;;
53269;SDS011;39159;45.634;9.420;2023-02-28T03:09:55;18.98;;;9.80;;
53269;SDS011;39159;45.634;9.420;2023-02-28T03:12:23;22.45;;;10.63;;
53269;SDS011;39159;45.634;9.420;2023-02-28T03:18:28;16.13;;;9.48;;
53269;SDS011;39159;45.634;9.420;2023-02-28T03:23:17;18.80;;;10.30;;
53269;SDS011;39159;45.634;9.420;2023-02-28T03:25:56;17.88;;;9.63;;
53269;SDS011;39159;45.634;9.420;2023-02-28T03:33:28;18.02;;;9.40;;
53269;SDS011;39159;45.634;9.420;2023-02-28T03:36:01;17.52;;;9.02;;
53269;SDS011;39159;45.634;9.420;2023-02-28T03:38:33;18.52;;;8.98;;
53269;SDS011;39159;45.634;9.420;2023-02-28T03:41:15;18.90;;;9.43;;
53269;SDS011;39159;45.634;9.420;2023-02-28T03:43:54;16.80;;;9.52;;
53269;SDS011;39159;45.634;9.420;2023-02-28T03:46:25;18.58;;;9.43;;
53269;SDS011;39159;45.634;9.420;2023-02-28T03:51:36;20.65;;;9.70;;
53269;SDS011;39159;45.634;9.420;2023-02-28T03:54:09;19.85;;;10.25;;
53269;SDS011;39159;45.634;9.420;2023-02-28T03:57:02;18.77;;;10.03;;
53269;SDS011;39159;45.634;9.420;2023-02-28T03:59:36;16.98;;;9.68;;
53269;SDS011;39159;45.634;9.420;2023-02-28T04:02:07;16.38;;;9.70;;
53269;SDS011;39159;45.634;9.420;2023-02-28T04:04:33;18.52;;;9.95;;
53269;SDS011;39159;45.634;9.420;2023-02-28T04:07:07;20.88;;;10.10;;
53269;SDS011;39159;45.634;9.420;2023-02-28T04:09:34;18.15;;;9.55;;
53269;SDS011;39159;45.634;9.420;2023-02-28T04:11:59;20.02;;;9.73;;
53269;SDS011;39159;45.634;9.420;2023-02-28T04:14:25;21.00;;;10.63;;
53269;SDS011;39159;45.634;9.420;2023-02-28T04:16:50;20.08;;;10.18;;
53269;SDS011;39159;45.634;9.420;2023-02-28T04:19:16;20.90;;;9.70;;
53269;SDS011;39159;45.634;9.420;2023-02-28T04:21:42;15.13;;;9.27;;
53269;SDS011;39159;45.634;9.420;2023-02-28T04:24:13;21.15;;;10.05;;
53269;SDS011;39159;45.634;9.420;2023-02-28T04:26:45;21.58;;;10.52;;
53269;SDS011;39159;45.634;9.420;2023-02-28T04:29:13;24.42;;;10.88;;
53269;SDS011;39159;45.634;9.420;2023-02-28T04:31:43;21.70;;;9.93;;
53269;SDS011;39159;45.634;9.420;2023-02-28T04:34:08;20.02;;;11.57;;
53269;SDS011;39159;45.634;9.420;2023-02-28T04:36:33;19.40;;;10.30;;
53269;SDS011;39159;45.634;9.420;2023-02-28T04:38:59;21.35;;;10.68;;
53269;SDS011;39159;45.634;9.420;2023-02-28T04:41:24;23.70;;;11.52;;
53269;SDS011;39159;45.634;9.420;2023-02-28T04:43:51;20.80;;;10.93;;
53269;SDS011;39159;45.634;9.420;2023-02-28T04:46:17;21.42;;;11.48;;
53269;SDS011;39159;45.634;9.420;2023-02-28T04:48:43;19.90;;;11.07;;
53269;SDS011;39159;45.634;9.420;2023-02-28T04:51:10;21.48;;;11.45;;
53269;SDS011;39159;45.634;9.420;2023-02-28T04:53:38;23.10;;;11.40;;
53269;SDS011;39159;45.634;9.420;2023-02-28T04:56:05;23.50;;;11.93;;
53269;SDS011;39159;45.634;9.420;2023-02-28T04:58:32;20.67;;;11.43;;
53269;SDS011;39159;45.634;9.420;2023-02-28T05:01:02;23.95;;;11.48;;
53269;SDS011;39159;45.634;9.420;2023-02-28T05:03:29;23.52;;;11.63;;
53269;SDS011;39159;45.634;9.420;2023-02-28T05:05:54;21.17;;;11.23;;
53269;SDS011;39159;45.634;9.420;2023-02-28T05:08:20;20.42;;;10.50;;
53269;SDS011;39159;45.634;9.420;2023-02-28T05:10:45;20.40;;;10.48;;
53269;SDS011;39159;45.634;9.420;2023-02-28T05:13:11;20.52;;;11.45;;
53269;SDS011;39159;45.634;9.420;2023-02-28T05:15:37;20.55;;;10.52;;
53269;SDS011;39159;45.634;9.420;2023-02-28T05:18:03;21.33;;;11.18;;
53269;SDS011;39159;45.634;9.420;2023-02-28T05:20:28;23.45;;;11.20;;
53269;SDS011;39159;45.634;9.420;2023-02-28T05:22:54;23.25;;;11.38;;
53269;SDS011;39159;45.634;9.420;2023-02-28T05:25:20;21.58;;;10.82;;
53269;SDS011;39159;45.634;9.420;2023-02-28T05:27:49;19.83;;;11.00;;
53269;SDS011;39159;45.634;9.420;2023-02-28T05:30:14;20.70;;;11.02;;
53269;SDS011;39159;45.634;9.420;2023-02-28T05:32:40;27.60;;;11.52;;
53269;SDS011;39159;45.634;9.420;2023-02-28T05:35:12;22.70;;;11.55;;
53269;SDS011;39159;45.634;9.420;2023-02-28T05:37:38;22.67;;;11.50;;
53269;SDS011;39159;45.634;9.420;2023-02-28T05:40:04;21.30;;;11.00;;
53269;SDS011;39159;45.634;9.420;2023-02-28T05:42:31;21.73;;;11.23;;
53269;SDS011;39159;45.634;9.420;2023-02-28T05:44:57;19.33;;;10.75;;
53269;SDS011;39159;45.634;9.420;2023-02-28T05:47:23;24.25;;;11.80;;
53269;SDS011;39159;45.634;9.420;2023-02-28T05:49:48;25.05;;;11.63;;
53269;SDS011;39159;45.634;9.420;2023-02-28T05:52:13;22.17;;;11.27;;
53269;SDS011;39159;45.634;9.420;2023-02-28T05:54:39;19.10;;;11.13;;
53269;SDS011;39159;45.634;9.420;2023-02-28T05:57:05;18.02;;;10.55;;
53269;SDS011;39159;45.634;9.420;2023-02-28T05:59:30;22.88;;;12.07;;
53269;SDS011;39159;45.634;9.420;2023-02-28T06:01:56;20.08;;;10.60;;
53269;SDS011;39159;45.634;9.420;2023-02-28T06:04:21;25.67;;;12.35;;
53269;SDS011;39159;45.634;9.420;2023-02-28T06:06:47;21.13;;;11.13;;
53269;SDS011;39159;45.634;9.420;2023-02-28T06:09:13;21.15;;;11.55;;
53269;SDS011;39159;45.634;9.420;2023-02-28T06:11:39;23.67;;;10.88;;
53269;SDS011;39159;45.634;9.420;2023-02-28T06:14:05;22.13;;;11.48;;
53269;SDS011;39159;45.634;9.420;2023-02-28T06:16:32;24.80;;;11.60;;
53269;SDS011;39159;45.634;9.420;2023-02-28T06:19:00;23.17;;;12.95;;
53269;SDS011;39159;45.634;9.420;2023-02-28T06:21:28;25.15;;;12.27;;
53269;SDS011;39159;45.634;9.420;2023-02-28T06:23:54;22.15;;;11.98;;
53269;SDS011;39159;45.634;9.420;2023-02-28T06:26:21;21.50;;;11.13;;
53269;SDS011;39159;45.634;9.420;2023-02-28T06:28:47;24.45;;;12.35;;
53269;SDS011;39159;45.634;9.420;2023-02-28T06:31:13;22.73;;;12.25;;
53269;SDS011;39159;45.634;9.420;2023-02-28T06:33:41;28.08;;;13.05;;
53269;SDS011;39159;45.634;9.420;2023-02-28T06:36:08;25.00;;;12.93;;
53269;SDS011;39159;45.634;9.420;2023-02-28T06:38:35;26.30;;;14.68;;
53269;SDS011;39159;45.634;9.420;2023-02-28T06:41:01;26.08;;;13.98;;
53269;SDS011;39159;45.634;9.420;2023-02-28T06:43:31;22.92;;;12.23;;
53269;SDS011;39159;45.634;9.420;2023-02-28T06:46:03;23.88;;;12.75;;
53269;SDS011;39159;45.634;9.420;2023-02-28T06:48:31;23.17;;;12.18;;
53269;SDS011;39159;45.634;9.420;2023-02-28T06:53:28;27.10;;;13.27;;
53269;SDS011;39159;45.634;9.420;2023-02-28T06:55:54;22.65;;;12.18;;
53269;SDS011;39159;45.634;9.420;2023-02-28T06:58:19;24.20;;;12.48;;
53269;SDS011;39159;45.634;9.420;2023-02-28T07:00:45;21.83;;;12.57;;
53269;SDS011;39159;45.634;9.420;2023-02-28T07:03:11;23.92;;;12.20;;
53269;SDS011;39159;45.634;9.420;2023-02-28T07:05:38;20.52;;;11.90;;
53269;SDS011;39159;45.634;9.420;2023-02-28T07:08:04;23.33;;;12.23;;
53269;SDS011;39159;45.634;9.420;2023-02-28T07:10:31;19.98;;;11.65;;
53269;SDS011;39159;45.634;9.420;2023-02-28T07:12:57;24.40;;;12.27;;
53269;SDS011;39159;45.634;9.420;2023-02-28T07:15:23;20.95;;;11.88;;
53269;SDS011;39159;45.634;9.420;2023-02-28T07:17:48;22.73;;;12.30;;
53269;SDS011;39159;45.634;9.420;2023-02-28T07:20:14;19.00;;;11.27;;
53269;SDS011;39159;45.634;9.420;2023-02-28T07:22:39;20.98;;;11.18;;
53269;SDS011;39159;45.634;9.420;2023-02-28T07:25:05;28.73;;;12.68;;
53269;SDS011;39159;45.634;9.420;2023-02-28T07:27:31;25.00;;;12.20;;
53269;SDS011;39159;45.634;9.420;2023-02-28T07:29:56;24.98;;;13.00;;
53269;SDS011;39159;45.634;9.420;2023-02-28T07:32:22;24.17;;;12.80;;
53269;SDS011;39159;45.634;9.420;2023-02-28T07:34:47;26.10;;;12.98;;
53269;SDS011;39159;45.634;9.420;2023-02-28T07:37:13;24.20;;;12.93;;
53269;SDS011;39159;45.634;9.420;2023-02-28T07:39:39;26.02;;;12.88;;
53269;SDS011;39159;45.634;9.420;2023-02-28T07:42:07;23.90;;;11.98;;
53269;SDS011;39159;45.634;9.420;2023-02-28T07:44:35;25.48;;;12.98;;
53269;SDS011;39159;45.634;9.420;2023-02-28T07:47:05;23.50;;;12.65;;
53269;SDS011;39159;45.634;9.420;2023-02-28T07:49:31;24.73;;;13.32;;
53269;SDS011;39159;45.634;9.420;2023-02-28T07:51:57;25.77;;;14.57;;
53269;SDS011;39159;45.634;9.420;2023-02-28T07:54:22;26.85;;;13.77;;
53269;SDS011;39159;45.634;9.420;2023-02-28T07:56:48;25.13;;;13.10;;
53269;SDS011;39159;45.634;9.420;2023-02-28T07:59:13;30.90;;;15.27;;
53269;SDS011;39159;45.634;9.420;2023-02-28T08:01:38;28.25;;;15.15;;
53269;SDS011;39159;45.634;9.420;2023-02-28T08:04:04;30.27;;;15.82;;
53269;SDS011;39159;45.634;9.420;2023-02-28T08:06:29;33.30;;;17.45;;
53269;SDS011;39159;45.634;9.420;2023-02-28T08:08:55;29.55;;;15.75;;
53269;SDS011;39159;45.634;9.420;2023-02-28T08:11:21;31.80;;;16.40;;
53269;SDS011;39159;45.634;9.420;2023-02-28T08:13:47;28.95;;;16.05;;
53269;SDS011;39159;45.634;9.420;2023-02-28T08:16:14;31.65;;;16.30;;
53269;SDS011;39159;45.634;9.420;2023-02-28T08:18:42;27.63;;;14.88;;
53269;SDS011;39159;45.634;9.420;2023-02-28T08:21:08;29.23;;;15.15;;
53269;SDS011;39159;45.634;9.420;2023-02-28T08:23:35;27.48;;;13.73;;
53269;SDS011;39159;45.634;9.420;2023-02-28T08:26:01;24.70;;;13.13;;
53269;SDS011;39159;45.634;9.420;2023-02-28T08:28:26;25.23;;;13.98;;
53269;SDS011;39159;45.634;9.420;2023-02-28T08:30:52;25.58;;;14.05;;
53269;SDS011;39159;45.634;9.420;2023-02-28T08:33:18;21.88;;;13.25;;
53269;SDS011;39159;45.634;9.420;2023-02-28T08:35:44;24.83;;;13.65;;
53269;SDS011;39159;45.634;9.420;2023-02-28T08:38:09;25.95;;;13.35;;
53269;SDS011;39159;45.634;9.420;2023-02-28T08:40:34;25.77;;;13.20;;
53269;SDS011;39159;45.634;9.420;2023-02-28T08:43:00;26.80;;;12.98;;
53269;SDS011;39159;45.634;9.420;2023-02-28T08:45:25;22.98;;;13.55;;
53269;SDS011;39159;45.634;9.420;2023-02-28T08:47:51;22.70;;;12.27;;
53269;SDS011;39159;45.634;9.420;2023-02-28T08:50:17;21.27;;;12.63;;
53269;SDS011;39159;45.634;9.420;2023-02-28T08:52:43;23.83;;;13.63;;
53269;SDS011;39159;45.634;9.420;2023-02-28T08:55:09;24.30;;;13.23;;
53269;SDS011;39159;45.634;9.420;2023-02-28T08:57:35;25.00;;;13.35;;
53269;SDS011;39159;45.634;9.420;2023-02-28T09:00:00;20.55;;;13.30;;
53269;SDS011;39159;45.634;9.420;2023-02-28T09:02:29;21.77;;;13.65;;
53269;SDS011;39159;45.634;9.420;2023-02-28T09:04:55;25.65;;;13.13;;
53269;SDS011;39159;45.634;9.420;2023-02-28T09:07:20;24.48;;;13.93;;
53269;SDS011;39159;45.634;9.420;2023-02-28T09:09:45;23.77;;;13.82;;
53269;SDS011;39159;45.634;9.420;2023-02-28T09:12:21;26.25;;;14.82;;
53269;SDS011;39159;45.634;9.420;2023-02-28T09:14:47;21.15;;;13.90;;
53269;SDS011;39159;45.634;9.420;2023-02-28T09:17:12;24.67;;;13.80;;
53269;SDS011;39159;45.634;9.420;2023-02-28T09:19:37;21.77;;;13.38;;
53269;SDS011;39159;45.634;9.420;2023-02-28T09:22:03;23.48;;;13.68;;
53269;SDS011;39159;45.634;9.420;2023-02-28T09:24:28;23.85;;;14.15;;
53269;SDS011;39159;45.634;9.420;2023-02-28T09:26:56;23.02;;;13.52;;
53269;SDS011;39159;45.634;9.420;2023-02-28T09:29:22;28.67;;;13.95;;
53269;SDS011;39159;45.634;9.420;2023-02-28T09:31:47;26.38;;;14.50;;
53269;SDS011;39159;45.634;9.420;2023-02-28T09:34:13;26.63;;;15.25;;
53269;SDS011;39159;45.634;9.420;2023-02-28T09:36:38;23.65;;;13.65;;
53269;SDS011;39159;45.634;9.420;2023-02-28T09:39:04;26.70;;;14.95;;
53269;SDS011;39159;45.634;9.420;2023-02-28T09:41:32;24.98;;;14.38;;
53269;SDS011;39159;45.634;9.420;2023-02-28T09:49:41;23.33;;;14.45;;
53269;SDS011;39159;45.634;9.420;2023-02-28T09:52:13;23.63;;;13.95;;
53269;SDS011;39159;45.634;9.420;2023-02-28T09:54:44;23.98;;;14.60;;
53269;SDS011;39159;45.634;9.420;2023-02-28T10:04:58;22.70;;;14.00;;
53269;SDS011;39159;45.634;9.420;2023-02-28T10:12:58;27.92;;;16.08;;
53269;SDS011;39159;45.634;9.420;2023-02-28T10:15:27;27.25;;;15.93;;
53269;SDS011;39159;45.634;9.420;2023-02-28T10:18:00;25.48;;;14.65;;
53269;SDS011;39159;45.634;9.420;2023-02-28T10:20:32;27.67;;;15.23;;
53269;SDS011;39159;45.634;9.420;2023-02-28T10:23:08;22.20;;;14.63;;
53269;SDS011;39159;45.634;9.420;2023-02-28T10:25:38;25.20;;;14.98;;
53269;SDS011;39159;45.634;9.420;2023-02-28T10:30:32;23.67;;;15.02;;
53269;SDS011;39159;45.634;9.420;2023-02-28T10:32:58;24.88;;;16.00;;
53269;SDS011;39159;45.634;9.420;2023-02-28T10:35:26;23.48;;;15.00;;
53269;SDS011;39159;45.634;9.420;2023-02-28T10:37:58;24.65;;;15.18;;
53269;SDS011;39159;45.634;9.420;2023-02-28T10:43:01;22.52;;;15.18;;
53269;SDS011;39159;45.634;9.420;2023-02-28T10:45:31;29.15;;;15.73;;
53269;SDS011;39159;45.634;9.420;2023-02-28T10:56:23;23.75;;;14.73;;
53269;SDS011;39159;45.634;9.420;2023-02-28T11:04:05;21.25;;;14.00;;
53269;SDS011;39159;45.634;9.420;2023-02-28T11:09:36;22.60;;;14.57;;
53269;SDS011;39159;45.634;9.420;2023-02-28T11:12:07;22.13;;;14.85;;
53269;SDS011;39159;45.634;9.420;2023-02-28T11:14:49;24.50;;;14.27;;
53269;SDS011;39159;45.634;9.420;2023-02-28T11:17:28;22.55;;;14.95;;
53269;SDS011;39159;45.634;9.420;2023-02-28T11:19:57;24.23;;;14.10;;
53269;SDS011;39159;45.634;9.420;2023-02-28T11:22:28;25.42;;;15.27;;
53269;SDS011;39159;45.634;9.420;2023-02-28T11:24:57;20.55;;;14.27;;
53269;SDS011;39159;45.634;9.420;2023-02-28T11:29:59;24.95;;;16.05;;
53269;SDS011;39159;45.634;9.420;2023-02-28T11:32:26;26.48;;;15.75;;
53269;SDS011;39159;45.634;9.420;2023-02-28T11:35:04;22.55;;;14.70;;
53269;SDS011;39159;45.634;9.420;2023-02-28T11:37:35;21.60;;;15.30;;
53269;SDS011;39159;45.634;9.420;2023-02-28T11:40:02;23.13;;;14.80;;
53269;SDS011;39159;45.634;9.420;2023-02-28T11:48:32;25.33;;;16.00;;
53269;SDS011;39159;45.634;9.420;2023-02-28T11:51:18;21.70;;;14.40;;
53269;SDS011;39159;45.634;9.420;2023-02-28T11:56:53;24.75;;;16.42;;
53269;SDS011;39159;45.634;9.420;2023-02-28T11:59:30;22.33;;;14.85;;
53269;SDS011;39159;45.634;9.420;2023-02-28T12:05:10;22.08;;;15.63;;
53269;SDS011;39159;45.634;9.420;2023-02-28T12:07:57;21.63;;;15.15;;
53269;SDS011;39159;45.634;9.420;2023-02-28T12:10:35;25.25;;;16.25;;
53269;SDS011;39159;45.634;9.420;2023-02-28T12:18:26;21.17;;;15.63;;
53269;SDS011;39159;45.634;9.420;2023-02-28T12:21:24;25.80;;;15.73;;
53269;SDS011;39159;45.634;9.420;2023-02-28T12:26:38;24.50;;;16.25;;
53269;SDS011;39159;45.634;9.420;2023-02-28T12:29:14;25.70;;;16.48;;
53269;SDS011;39159;45.634;9.420;2023-02-28T12:31:44;22.90;;;16.15;;
53269;SDS011;39159;45.634;9.420;2023-02-28T12:34:37;21.52;;;15.05;;
53269;SDS011;39159;45.634;9.420;2023-02-28T12:37:36;22.75;;;15.13;;
53269;SDS011;39159;45.634;9.420;2023-02-28T12:40:05;21.15;;;14.65;;
53269;SDS011;39159;45.634;9.420;2023-02-28T12:42:37;23.67;;;15.75;;
53269;SDS011;39159;45.634;9.420;2023-02-28T12:45:24;24.85;;;15.43;;
53269;SDS011;39159;45.634;9.420;2023-02-28T12:47:57;19.77;;;14.13;;
53269;SDS011;39159;45.634;9.420;2023-02-28T12:50:26;19.55;;;14.30;;
53269;SDS011;39159;45.634;9.420;2023-02-28T12:59:01;24.15;;;15.25;;
53269;SDS011;39159;45.634;9.420;2023-02-28T13:09:56;22.70;;;15.23;;
53269;SDS011;39159;45.634;9.420;2023-02-28T13:12:24;22.02;;;15.20;;
53269;SDS011;39159;45.634;9.420;2023-02-28T13:14:51;22.48;;;14.93;;
53269;SDS011;39159;45.634;9.420;2023-02-28T13:17:50;22.80;;;14.85;;
53269;SDS011;39159;45.634;9.420;2023-02-28T13:20:46;23.52;;;15.68;;
53269;SDS011;39159;45.634;9.420;2023-02-28T13:26:06;23.38;;;15.80;;
53269;SDS011;39159;45.634;9.420;2023-02-28T13:28:56;23.58;;;15.63;;
53269;SDS011;39159;45.634;9.420;2023-02-28T13:31:20;22.42;;;14.93;;
53269;SDS011;39159;45.634;9.420;2023-02-28T14:09:01;23.83;;;16.35;;
53269;SDS011;39159;45.634;9.420;2023-02-28T14:11:39;23.38;;;15.70;;
53269;SDS011;39159;45.634;9.420;2023-02-28T14:14:07;23.85;;;15.27;;
53269;SDS011;39159;45.634;9.420;2023-02-28T14:16:44;22.80;;;15.70;;
53269;SDS011;39159;45.634;9.420;2023-02-28T14:19:19;23.02;;;15.85;;
53269;SDS011;39159;45.634;9.420;2023-02-28T14:24:57;25.55;;;16.40;;
53269;SDS011;39159;45.634;9.420;2023-02-28T14:27:30;23.33;;;15.57;;
53269;SDS011;39159;45.634;9.420;2023-02-28T14:33:27;22.17;;;15.77;;
53269;SDS011;39159;45.634;9.420;2023-02-28T14:36:11;25.85;;;16.02;;
53269;SDS011;39159;45.634;9.420;2023-02-28T14:38:48;24.90;;;16.52;;
53269;SDS011;39159;45.634;9.420;2023-02-28T14:41:20;24.90;;;16.05;;
53269;SDS011;39159;45.634;9.420;2023-02-28T14:43:49;21.77;;;14.63;;
53269;SDS011;39159;45.634;9.420;2023-02-28T14:46:16;24.13;;;16.30;;
53269;SDS011;39159;45.634;9.420;2023-02-28T14:48:45;22.95;;;14.82;;
53269;SDS011;39159;45.634;9.420;2023-02-28T14:51:12;26.70;;;19.88;;
53269;SDS011;39159;45.634;9.420;2023-02-28T14:56:21;23.20;;;15.85;;
53269;SDS011;39159;45.634;9.420;2023-02-28T14:58:55;26.20;;;19.60;;
53269;SDS011;39159;45.634;9.420;2023-02-28T15:01:21;23.88;;;15.70;;
53269;SDS011;39159;45.634;9.420;2023-02-28T15:03:56;36.97;;;22.08;;
53269;SDS011;39159;45.634;9.420;2023-02-28T15:06:23;27.10;;;17.65;;
53269;SDS011;39159;45.634;9.420;2023-02-28T15:09:05;20.73;;;14.82;;
53269;SDS011;39159;45.634;9.420;2023-02-28T15:11:41;23.93;;;15.57;;
53269;SDS011;39159;45.634;9.420;2023-02-28T15:14:18;27.63;;;16.52;;
53269;SDS011;39159;45.634;9.420;2023-02-28T15:16:46;21.60;;;14.85;;
53269;SDS011;39159;45.634;9.420;2023-02-28T15:19:20;23.60;;;15.27;;
53269;SDS011;39159;45.634;9.420;2023-02-28T15:21:51;23.92;;;15.13;;
53269;SDS011;39159;45.634;9.420;2023-02-28T15:26:57;24.13;;;16.77;;
53269;SDS011;39159;45.634;9.420;2023-02-28T15:29:25;23.75;;;14.93;;
53269;SDS011;39159;45.634;9.420;2023-02-28T15:32:00;22.38;;;14.75;;
53269;SDS011;39159;45.634;9.420;2023-02-28T15:34:33;23.75;;;15.43;;
53269;SDS011;39159;45.634;9.420;2023-02-28T15:37:01;22.75;;;14.85;;
53269;SDS011;39159;45.634;9.420;2023-02-28T15:39:27;23.42;;;15.10;;
53269;SDS011;39159;45.634;9.420;2023-02-28T15:42:12;24.63;;;15.00;;
53269;SDS011;39159;45.634;9.420;2023-02-28T15:44:43;22.77;;;14.18;;
53269;SDS011;39159;45.634;9.420;2023-02-28T15:47:19;23.90;;;15.25;;
53269;SDS011;39159;45.634;9.420;2023-02-28T15:50:03;22.88;;;15.20;;
53269;SDS011;39159;45.634;9.420;2023-02-28T15:52:39;25.92;;;16.50;;
53269;SDS011;39159;45.634;9.420;2023-02-28T15:55:09;24.95;;;16.27;;
53269;SDS011;39159;45.634;9.420;2023-02-28T15:57:48;25.13;;;17.00;;
53269;SDS011;39159;45.634;9.420;2023-02-28T16:00:18;25.88;;;15.75;;
53269;SDS011;39159;45.634;9.420;2023-02-28T16:02:46;25.00;;;16.35;;
53269;SDS011;39159;45.634;9.420;2023-02-28T16:07:38;20.00;;;13.38;;
53269;SDS011;39159;45.634;9.420;2023-02-28T16:10:05;23.27;;;14.70;;
53269;SDS011;39159;45.634;9.420;2023-02-28T16:12:34;22.83;;;15.05;;
53269;SDS011;39159;45.634;9.420;2023-02-28T16:15:02;23.80;;;14.77;;
53269;SDS011;39159;45.634;9.420;2023-02-28T16:17:35;22.35;;;14.77;;
53269;SDS011;39159;45.634;9.420;2023-02-28T16:20:16;21.77;;;14.45;;
53269;SDS011;39159;45.634;9.420;2023-02-28T16:22:42;22.10;;;14.63;;
53269;SDS011;39159;45.634;9.420;2023-02-28T16:25:12;21.88;;;15.30;;
53269;SDS011;39159;45.634;9.420;2023-02-28T16:27:39;26.70;;;15.88;;
53269;SDS011;39159;45.634;9.420;2023-02-28T16:30:06;25.15;;;15.60;;
53269;SDS011;39159;45.634;9.420;2023-02-28T16:32:34;24.40;;;15.77;;
53269;SDS011;39159;45.634;9.420;2023-02-28T16:35:01;22.02;;;14.85;;
53269;SDS011;39159;45.634;9.420;2023-02-28T16:37:27;25.30;;;16.33;;
53269;SDS011;39159;45.634;9.420;2023-02-28T16:39:53;22.35;;;15.43;;
53269;SDS011;39159;45.634;9.420;2023-02-28T16:42:21;23.88;;;15.25;;
53269;SDS011;39159;45.634;9.420;2023-02-28T16:44:48;27.85;;;18.23;;
53269;SDS011;39159;45.634;9.420;2023-02-28T16:47:14;30.23;;;17.50;;
53269;SDS011;39159;45.634;9.420;2023-02-28T16:49:40;25.77;;;16.77;;
53269;SDS011;39159;45.634;9.420;2023-02-28T16:52:07;22.40;;;15.57;;
53269;SDS011;39159;45.634;9.420;2023-02-28T16:54:33;27.40;;;16.38;;
53269;SDS011;39159;45.634;9.420;2023-02-28T16:56:58;31.90;;;18.75;;
53269;SDS011;39159;45.634;9.420;2023-02-28T16:59:24;34.85;;;18.92;;
53269;SDS011;39159;45.634;9.420;2023-02-28T17:01:52;27.23;;;16.83;;
53269;SDS011;39159;45.634;9.420;2023-02-28T17:04:18;31.42;;;17.70;;
53269;SDS011;39159;45.634;9.420;2023-02-28T17:06:44;28.73;;;17.85;;
53269;SDS011;39159;45.634;9.420;2023-02-28T17:09:17;29.80;;;17.83;;
53269;SDS011;39159;45.634;9.420;2023-02-28T17:11:44;30.55;;;17.27;;
53269;SDS011;39159;45.634;9.420;2023-02-28T17:14:10;27.98;;;16.73;;
53269;SDS011;39159;45.634;9.420;2023-02-28T17:16:36;35.55;;;19.02;;
53269;SDS011;39159;45.634;9.420;2023-02-28T17:19:05;27.40;;;17.13;;
53269;SDS011;39159;45.634;9.420;2023-02-28T17:21:32;40.78;;;21.33;;
53269;SDS011;39159;45.634;9.420;2023-02-28T17:23:59;31.20;;;18.52;;
53269;SDS011;39159;45.634;9.420;2023-02-28T17:26:25;44.20;;;20.35;;